sensor_id;sensor_type;location;lat;lon;timestamp;P1;durP1;ratioP1;P2;durP2;ratioP2
72319;SDS011;60269;52.502;16.732;2022-10-15T00:02:14;84.80;;;32.97;;
72319;SDS011;60269;52.502;16.732;2022-10-15T00:05:45;88.97;;;33.37;;
72319;SDS011;60269;52.502;16.732;2022-10-15T00:09:17;97.35;;;35.13;;
72319;SDS011;60269;52.502;16.732;2022-10-15T00:12:49;87.88;;;34.45;;
72319;SDS011;60269;52.502;16.732;2022-10-15T00:16:22;87.37;;;33.87;;
72319;SDS011;60269;52.502;16.732;2022-10-15T00:19:56;91.37;;;35.13;;
72319;SDS011;60269;52.502;16.732;2022-10-15T00:23:27;89.53;;;35.42;;
72319;SDS011;60269;52.502;16.732;2022-10-15T00:26:59;81.90;;;32.03;;
72319;SDS011;60269;52.502;16.732;2022-10-15T00:30:31;75.93;;;31.87;;
72319;SDS011;60269;52.502;16.732;2022-10-15T00:34:03;77.80;;;29.90;;
72319;SDS011;60269;52.502;16.732;2022-10-15T00:37:35;77.53;;;30.70;;
72319;SDS011;60269;52.502;16.732;2022-10-15T00:41:07;67.03;;;29.65;;
72319;SDS011;60269;52.502;16.732;2022-10-15T00:48:23;70.50;;;27.50;;
72319;SDS011;60269;52.502;16.732;2022-10-15T00:55:39;63.90;;;26.90;;
72319;SDS011;60269;52.502;16.732;2022-10-15T00:59:13;62.00;;;26.40;;
72319;SDS011;60269;52.502;16.732;2022-10-15T01:02:46;67.80;;;27.20;;
72319;SDS011;60269;52.502;16.732;2022-10-15T01:06:18;62.92;;;24.23;;
72319;SDS011;60269;52.502;16.732;2022-10-15T01:09:50;61.15;;;24.58;;
72319;SDS011;60269;52.502;16.732;2022-10-15T01:21:06;52.90;;;22.70;;
72319;SDS011;60269;52.502;16.732;2022-10-15T01:25:02;56.42;;;23.45;;
72319;SDS011;60269;52.502;16.732;2022-10-15T01:28:48;54.77;;;24.40;;
72319;SDS011;60269;52.502;16.732;2022-10-15T01:32:26;49.83;;;21.23;;
72319;SDS011;60269;52.502;16.732;2022-10-15T01:39:40;50.33;;;21.35;;
72319;SDS011;60269;52.502;16.732;2022-10-15T01:50:56;51.10;;;22.02;;
72319;SDS011;60269;52.502;16.732;2022-10-15T01:54:31;57.85;;;22.92;;
72319;SDS011;60269;52.502;16.732;2022-10-15T01:58:04;53.00;;;22.63;;
72319;SDS011;60269;52.502;16.732;2022-10-15T02:01:36;56.27;;;23.33;;
72319;SDS011;60269;52.502;16.732;2022-10-15T02:05:09;61.80;;;22.38;;
72319;SDS011;60269;52.502;16.732;2022-10-15T02:08:53;51.13;;;21.90;;
72319;SDS011;60269;52.502;16.732;2022-10-15T02:24:18;59.78;;;23.50;;
72319;SDS011;60269;52.502;16.732;2022-10-15T02:27:55;55.13;;;22.63;;
72319;SDS011;60269;52.502;16.732;2022-10-15T02:31:28;57.20;;;24.77;;
72319;SDS011;60269;52.502;16.732;2022-10-15T02:35:02;57.75;;;24.63;;
72319;SDS011;60269;52.502;16.732;2022-10-15T02:38:37;56.65;;;23.35;;
72319;SDS011;60269;52.502;16.732;2022-10-15T02:42:13;50.00;;;22.97;;
72319;SDS011;60269;52.502;16.732;2022-10-15T02:45:48;62.70;;;24.77;;
72319;SDS011;60269;52.502;16.732;2022-10-15T02:49:19;53.80;;;22.75;;
72319;SDS011;60269;52.502;16.732;2022-10-15T02:52:51;46.15;;;22.05;;
72319;SDS011;60269;52.502;16.732;2022-10-15T02:56:23;57.77;;;22.93;;
72319;SDS011;60269;52.502;16.732;2022-10-15T02:59:56;47.70;;;21.43;;
72319;SDS011;60269;52.502;16.732;2022-10-15T03:03:28;46.22;;;21.88;;
72319;SDS011;60269;52.502;16.732;2022-10-15T03:07:00;54.28;;;22.23;;
72319;SDS011;60269;52.502;16.732;2022-10-15T03:10:32;49.27;;;20.53;;
72319;SDS011;60269;52.502;16.732;2022-10-15T03:14:03;49.27;;;21.70;;
72319;SDS011;60269;52.502;16.732;2022-10-15T03:17:35;46.88;;;21.33;;
72319;SDS011;60269;52.502;16.732;2022-10-15T03:21:07;45.83;;;20.45;;
72319;SDS011;60269;52.502;16.732;2022-10-15T03:24:39;42.80;;;20.83;;
72319;SDS011;60269;52.502;16.732;2022-10-15T03:28:11;45.70;;;19.53;;
72319;SDS011;60269;52.502;16.732;2022-10-15T03:31:43;48.75;;;20.85;;
72319;SDS011;60269;52.502;16.732;2022-10-15T03:35:15;47.90;;;20.40;;
72319;SDS011;60269;52.502;16.732;2022-10-15T03:38:47;49.77;;;20.00;;
72319;SDS011;60269;52.502;16.732;2022-10-15T03:42:19;48.43;;;20.53;;
72319;SDS011;60269;52.502;16.732;2022-10-15T03:45:51;44.30;;;20.30;;
72319;SDS011;60269;52.502;16.732;2022-10-15T03:49:23;44.40;;;20.75;;
72319;SDS011;60269;52.502;16.732;2022-10-15T03:52:55;48.60;;;21.50;;
72319;SDS011;60269;52.502;16.732;2022-10-15T03:56:27;49.17;;;21.47;;
72319;SDS011;60269;52.502;16.732;2022-10-15T03:59:59;47.28;;;18.60;;
72319;SDS011;60269;52.502;16.732;2022-10-15T04:03:31;47.28;;;19.70;;
72319;SDS011;60269;52.502;16.732;2022-10-15T04:07:02;48.53;;;20.10;;
72319;SDS011;60269;52.502;16.732;2022-10-15T04:10:34;48.43;;;20.53;;
72319;SDS011;60269;52.502;16.732;2022-10-15T04:14:06;43.95;;;20.75;;
72319;SDS011;60269;52.502;16.732;2022-10-15T04:17:38;47.03;;;19.55;;
72319;SDS011;60269;52.502;16.732;2022-10-15T04:21:09;41.17;;;17.63;;
72319;SDS011;60269;52.502;16.732;2022-10-15T04:24:41;41.30;;;18.90;;
72319;SDS011;60269;52.502;16.732;2022-10-15T04:28:13;39.08;;;18.55;;
72319;SDS011;60269;52.502;16.732;2022-10-15T04:31:45;45.53;;;18.55;;
72319;SDS011;60269;52.502;16.732;2022-10-15T04:35:16;37.57;;;17.53;;
72319;SDS011;60269;52.502;16.732;2022-10-15T04:38:48;44.10;;;18.73;;
72319;SDS011;60269;52.502;16.732;2022-10-15T04:42:20;36.58;;;16.52;;
72319;SDS011;60269;52.502;16.732;2022-10-15T04:45:56;39.20;;;17.70;;
72319;SDS011;60269;52.502;16.732;2022-10-15T04:49:31;39.97;;;17.35;;
72319;SDS011;60269;52.502;16.732;2022-10-15T04:53:03;39.60;;;17.93;;
72319;SDS011;60269;52.502;16.732;2022-10-15T04:56:35;37.47;;;17.58;;
72319;SDS011;60269;52.502;16.732;2022-10-15T05:00:07;41.95;;;17.42;;
72319;SDS011;60269;52.502;16.732;2022-10-15T05:03:40;39.35;;;17.52;;
72319;SDS011;60269;52.502;16.732;2022-10-15T05:07:15;38.20;;;16.37;;
72319;SDS011;60269;52.502;16.732;2022-10-15T05:10:47;37.25;;;17.52;;
72319;SDS011;60269;52.502;16.732;2022-10-15T05:14:19;37.63;;;16.55;;
72319;SDS011;60269;52.502;16.732;2022-10-15T05:17:51;36.83;;;15.73;;
72319;SDS011;60269;52.502;16.732;2022-10-15T05:21:23;42.03;;;16.57;;
72319;SDS011;60269;52.502;16.732;2022-10-15T05:24:55;37.35;;;16.48;;
72319;SDS011;60269;52.502;16.732;2022-10-15T05:28:28;35.60;;;16.35;;
72319;SDS011;60269;52.502;16.732;2022-10-15T05:32:00;40.03;;;17.73;;
72319;SDS011;60269;52.502;16.732;2022-10-15T05:36:22;37.27;;;16.17;;
72319;SDS011;60269;52.502;16.732;2022-10-15T05:39:56;44.33;;;17.85;;
72319;SDS011;60269;52.502;16.732;2022-10-15T05:43:28;45.72;;;19.23;;
72319;SDS011;60269;52.502;16.732;2022-10-15T05:47:00;40.30;;;17.65;;
72319;SDS011;60269;52.502;16.732;2022-10-15T05:50:32;41.90;;;17.83;;
72319;SDS011;60269;52.502;16.732;2022-10-15T05:54:04;45.30;;;18.13;;
72319;SDS011;60269;52.502;16.732;2022-10-15T05:57:36;43.85;;;18.30;;
72319;SDS011;60269;52.502;16.732;2022-10-15T06:01:08;39.30;;;16.80;;
72319;SDS011;60269;52.502;16.732;2022-10-15T06:04:42;40.77;;;17.70;;
72319;SDS011;60269;52.502;16.732;2022-10-15T06:08:13;42.92;;;18.85;;
72319;SDS011;60269;52.502;16.732;2022-10-15T06:11:46;43.60;;;18.08;;
72319;SDS011;60269;52.502;16.732;2022-10-15T06:15:18;43.17;;;18.03;;
72319;SDS011;60269;52.502;16.732;2022-10-15T06:18:51;36.90;;;16.70;;
72319;SDS011;60269;52.502;16.732;2022-10-15T06:22:23;38.58;;;17.27;;
72319;SDS011;60269;52.502;16.732;2022-10-15T06:25:55;43.55;;;16.98;;
72319;SDS011;60269;52.502;16.732;2022-10-15T06:29:27;38.22;;;17.00;;
72319;SDS011;60269;52.502;16.732;2022-10-15T06:32:59;37.77;;;17.17;;
72319;SDS011;60269;52.502;16.732;2022-10-15T06:36:31;38.67;;;16.95;;
72319;SDS011;60269;52.502;16.732;2022-10-15T06:40:03;40.30;;;17.40;;
72319;SDS011;60269;52.502;16.732;2022-10-15T06:43:35;49.65;;;19.48;;
72319;SDS011;60269;52.502;16.732;2022-10-15T06:47:08;42.47;;;18.33;;
72319;SDS011;60269;52.502;16.732;2022-10-15T06:50:39;46.95;;;19.42;;
72319;SDS011;60269;52.502;16.732;2022-10-15T06:54:11;51.05;;;20.10;;
72319;SDS011;60269;52.502;16.732;2022-10-15T06:57:43;50.92;;;21.33;;
72319;SDS011;60269;52.502;16.732;2022-10-15T07:01:15;51.50;;;20.10;;
72319;SDS011;60269;52.502;16.732;2022-10-15T07:04:47;49.38;;;19.45;;
72319;SDS011;60269;52.502;16.732;2022-10-15T07:08:19;43.95;;;19.42;;
72319;SDS011;60269;52.502;16.732;2022-10-15T07:11:51;48.00;;;19.37;;
72319;SDS011;60269;52.502;16.732;2022-10-15T07:15:23;49.87;;;20.23;;
72319;SDS011;60269;52.502;16.732;2022-10-15T07:18:55;48.45;;;19.85;;
72319;SDS011;60269;52.502;16.732;2022-10-15T07:22:27;50.65;;;20.30;;
72319;SDS011;60269;52.502;16.732;2022-10-15T07:25:59;43.10;;;19.73;;
72319;SDS011;60269;52.502;16.732;2022-10-15T07:29:31;53.23;;;19.90;;
72319;SDS011;60269;52.502;16.732;2022-10-15T07:33:02;47.88;;;18.85;;
72319;SDS011;60269;52.502;16.732;2022-10-15T07:36:34;51.70;;;21.20;;
72319;SDS011;60269;52.502;16.732;2022-10-15T07:40:06;50.80;;;19.55;;
72319;SDS011;60269;52.502;16.732;2022-10-15T07:43:38;53.63;;;20.13;;
72319;SDS011;60269;52.502;16.732;2022-10-15T07:47:10;55.35;;;20.35;;
72319;SDS011;60269;52.502;16.732;2022-10-15T07:50:42;47.70;;;20.73;;
72319;SDS011;60269;52.502;16.732;2022-10-15T07:54:14;54.17;;;22.00;;
72319;SDS011;60269;52.502;16.732;2022-10-15T07:57:46;42.27;;;18.50;;
72319;SDS011;60269;52.502;16.732;2022-10-15T08:01:18;50.75;;;20.63;;
72319;SDS011;60269;52.502;16.732;2022-10-15T08:04:51;50.85;;;20.60;;
72319;SDS011;60269;52.502;16.732;2022-10-15T08:08:23;49.47;;;20.57;;
72319;SDS011;60269;52.502;16.732;2022-10-15T08:11:54;54.23;;;20.30;;
72319;SDS011;60269;52.502;16.732;2022-10-15T08:15:26;48.10;;;20.08;;
72319;SDS011;60269;52.502;16.732;2022-10-15T08:18:58;44.50;;;19.08;;
72319;SDS011;60269;52.502;16.732;2022-10-15T08:22:31;46.57;;;19.37;;
72319;SDS011;60269;52.502;16.732;2022-10-15T08:26:04;41.83;;;17.97;;
72319;SDS011;60269;52.502;16.732;2022-10-15T08:29:36;43.67;;;18.05;;
72319;SDS011;60269;52.502;16.732;2022-10-15T08:33:07;44.13;;;17.55;;
72319;SDS011;60269;52.502;16.732;2022-10-15T08:36:39;40.57;;;18.43;;
72319;SDS011;60269;52.502;16.732;2022-10-15T08:40:11;49.13;;;18.67;;
72319;SDS011;60269;52.502;16.732;2022-10-15T08:43:44;48.88;;;19.30;;
72319;SDS011;60269;52.502;16.732;2022-10-15T08:47:31;44.05;;;19.85;;
72319;SDS011;60269;52.502;16.732;2022-10-15T08:51:09;47.37;;;19.77;;
72319;SDS011;60269;52.502;16.732;2022-10-15T08:54:44;45.33;;;19.55;;
72319;SDS011;60269;52.502;16.732;2022-10-15T08:58:19;47.05;;;19.67;;
72319;SDS011;60269;52.502;16.732;2022-10-15T09:01:57;41.88;;;19.27;;
72319;SDS011;60269;52.502;16.732;2022-10-15T09:05:35;46.07;;;18.23;;
72319;SDS011;60269;52.502;16.732;2022-10-15T09:09:18;43.58;;;18.77;;
72319;SDS011;60269;52.502;16.732;2022-10-15T09:13:14;43.35;;;18.35;;
72319;SDS011;60269;52.502;16.732;2022-10-15T09:16:54;37.13;;;16.38;;
72319;SDS011;60269;52.502;16.732;2022-10-15T09:20:30;40.73;;;17.63;;
72319;SDS011;60269;52.502;16.732;2022-10-15T09:24:04;35.20;;;15.85;;
72319;SDS011;60269;52.502;16.732;2022-10-15T09:27:36;35.80;;;15.25;;
72319;SDS011;60269;52.502;16.732;2022-10-15T09:31:09;37.88;;;17.15;;
72319;SDS011;60269;52.502;16.732;2022-10-15T09:34:56;38.03;;;17.30;;
72319;SDS011;60269;52.502;16.732;2022-10-15T09:46:01;38.35;;;17.20;;
72319;SDS011;60269;52.502;16.732;2022-10-15T09:49:34;39.30;;;15.90;;
72319;SDS011;60269;52.502;16.732;2022-10-15T09:57:11;34.72;;;17.58;;
72319;SDS011;60269;52.502;16.732;2022-10-15T10:00:56;42.05;;;17.58;;
72319;SDS011;60269;52.502;16.732;2022-10-15T10:04:31;35.73;;;15.90;;
72319;SDS011;60269;52.502;16.732;2022-10-15T10:11:52;29.88;;;14.50;;
72319;SDS011;60269;52.502;16.732;2022-10-15T10:15:33;34.17;;;15.57;;
72319;SDS011;60269;52.502;16.732;2022-10-15T10:19:12;33.40;;;15.73;;
72319;SDS011;60269;52.502;16.732;2022-10-15T10:26:22;30.75;;;15.25;;
72319;SDS011;60269;52.502;16.732;2022-10-15T10:30:00;28.80;;;13.85;;
72319;SDS011;60269;52.502;16.732;2022-10-15T10:37:04;32.15;;;14.65;;
72319;SDS011;60269;52.502;16.732;2022-10-15T10:40:38;25.88;;;12.93;;
72319;SDS011;60269;52.502;16.732;2022-10-15T10:44:16;30.90;;;14.30;;
72319;SDS011;60269;52.502;16.732;2022-10-15T10:47:53;29.13;;;13.97;;
72319;SDS011;60269;52.502;16.732;2022-10-15T10:51:25;30.50;;;13.80;;
72319;SDS011;60269;52.502;16.732;2022-10-15T10:58:57;29.83;;;12.85;;
72319;SDS011;60269;52.502;16.732;2022-10-15T11:02:34;28.17;;;14.47;;
72319;SDS011;60269;52.502;16.732;2022-10-15T11:10:06;30.67;;;15.18;;
72319;SDS011;60269;52.502;16.732;2022-10-15T11:13:59;24.92;;;12.95;;
72319;SDS011;60269;52.502;16.732;2022-10-15T11:17:49;32.97;;;13.50;;
72319;SDS011;60269;52.502;16.732;2022-10-15T11:28:59;28.65;;;12.82;;
72319;SDS011;60269;52.502;16.732;2022-10-15T11:32:45;31.15;;;14.07;;
72319;SDS011;60269;52.502;16.732;2022-10-15T11:40:46;27.40;;;12.23;;
72319;SDS011;60269;52.502;16.732;2022-10-15T11:47:59;26.08;;;12.88;;
72319;SDS011;60269;52.502;16.732;2022-10-15T12:03:06;25.27;;;12.18;;
72319;SDS011;60269;52.502;16.732;2022-10-15T12:06:59;22.97;;;11.43;;
72319;SDS011;60269;52.502;16.732;2022-10-15T12:10:45;26.80;;;12.07;;
72319;SDS011;60269;52.502;16.732;2022-10-15T12:18:39;24.70;;;11.32;;
72319;SDS011;60269;52.502;16.732;2022-10-15T12:22:30;24.88;;;11.82;;
72319;SDS011;60269;52.502;16.732;2022-10-15T12:33:34;23.90;;;10.35;;
72319;SDS011;60269;52.502;16.732;2022-10-15T12:37:16;24.83;;;10.82;;
72319;SDS011;60269;52.502;16.732;2022-10-15T12:40:56;26.53;;;11.90;;
72319;SDS011;60269;52.502;16.732;2022-10-15T12:44:49;23.23;;;11.30;;
72319;SDS011;60269;52.502;16.732;2022-10-15T12:59:54;22.35;;;10.77;;
72319;SDS011;60269;52.502;16.732;2022-10-15T13:03:33;22.27;;;8.90;;
72319;SDS011;60269;52.502;16.732;2022-10-15T13:07:10;20.42;;;9.07;;
72319;SDS011;60269;52.502;16.732;2022-10-15T13:10:46;19.37;;;9.10;;
72319;SDS011;60269;52.502;16.732;2022-10-15T13:18:10;18.80;;;8.85;;
72319;SDS011;60269;52.502;16.732;2022-10-15T13:21:57;21.80;;;8.70;;
72319;SDS011;60269;52.502;16.732;2022-10-15T13:25:34;21.57;;;8.07;;
72319;SDS011;60269;52.502;16.732;2022-10-15T13:29:12;17.77;;;8.50;;
72319;SDS011;60269;52.502;16.732;2022-10-15T13:32:55;17.88;;;8.27;;
72319;SDS011;60269;52.502;16.732;2022-10-15T13:36:31;15.40;;;7.60;;
72319;SDS011;60269;52.502;16.732;2022-10-15T13:40:05;19.30;;;8.18;;
72319;SDS011;60269;52.502;16.732;2022-10-15T13:43:49;15.57;;;6.70;;
72319;SDS011;60269;52.502;16.732;2022-10-15T13:47:27;16.23;;;6.93;;
72319;SDS011;60269;52.502;16.732;2022-10-15T13:51:02;20.08;;;8.93;;
72319;SDS011;60269;52.502;16.732;2022-10-15T13:54:36;16.10;;;7.75;;
72319;SDS011;60269;52.502;16.732;2022-10-15T13:58:19;18.27;;;8.00;;
72319;SDS011;60269;52.502;16.732;2022-10-15T14:02:01;18.65;;;7.53;;
72319;SDS011;60269;52.502;16.732;2022-10-15T14:05:34;19.45;;;8.35;;
72319;SDS011;60269;52.502;16.732;2022-10-15T14:09:15;22.50;;;8.93;;
72319;SDS011;60269;52.502;16.732;2022-10-15T14:12:50;19.97;;;8.17;;
72319;SDS011;60269;52.502;16.732;2022-10-15T14:19:55;21.95;;;10.30;;
72319;SDS011;60269;52.502;16.732;2022-10-15T14:23:50;21.08;;;9.82;;
72319;SDS011;60269;52.502;16.732;2022-10-15T14:27:23;25.90;;;10.77;;
72319;SDS011;60269;52.502;16.732;2022-10-15T14:30:56;22.00;;;9.80;;
72319;SDS011;60269;52.502;16.732;2022-10-15T14:41:44;22.10;;;9.40;;
72319;SDS011;60269;52.502;16.732;2022-10-15T14:45:26;21.47;;;10.30;;
72319;SDS011;60269;52.502;16.732;2022-10-15T14:49:00;23.15;;;11.00;;
72319;SDS011;60269;52.502;16.732;2022-10-15T14:52:33;22.73;;;11.15;;
72319;SDS011;60269;52.502;16.732;2022-10-15T14:56:08;25.75;;;10.57;;
72319;SDS011;60269;52.502;16.732;2022-10-15T14:59:47;22.77;;;10.88;;
72319;SDS011;60269;52.502;16.732;2022-10-15T15:03:19;22.37;;;11.03;;
72319;SDS011;60269;52.502;16.732;2022-10-15T15:06:52;26.23;;;10.82;;
72319;SDS011;60269;52.502;16.732;2022-10-15T15:10:25;20.92;;;9.88;;
72319;SDS011;60269;52.502;16.732;2022-10-15T15:13:57;24.63;;;10.45;;
72319;SDS011;60269;52.502;16.732;2022-10-15T15:17:29;25.30;;;11.10;;
72319;SDS011;60269;52.502;16.732;2022-10-15T15:21:02;24.85;;;10.95;;
72319;SDS011;60269;52.502;16.732;2022-10-15T15:24:36;21.65;;;11.07;;
72319;SDS011;60269;52.502;16.732;2022-10-15T15:28:12;24.20;;;10.80;;
72319;SDS011;60269;52.502;16.732;2022-10-15T15:31:46;24.13;;;10.60;;
72319;SDS011;60269;52.502;16.732;2022-10-15T15:35:25;25.40;;;10.80;;
72319;SDS011;60269;52.502;16.732;2022-10-15T15:39:02;26.52;;;11.25;;
72319;SDS011;60269;52.502;16.732;2022-10-15T15:42:34;27.27;;;11.43;;
72319;SDS011;60269;52.502;16.732;2022-10-15T15:46:06;26.30;;;11.60;;
72319;SDS011;60269;52.502;16.732;2022-10-15T15:49:38;25.77;;;10.95;;
72319;SDS011;60269;52.502;16.732;2022-10-15T15:53:10;26.83;;;11.98;;
72319;SDS011;60269;52.502;16.732;2022-10-15T15:56:43;25.75;;;11.38;;
72319;SDS011;60269;52.502;16.732;2022-10-15T16:00:19;21.40;;;10.00;;
72319;SDS011;60269;52.502;16.732;2022-10-15T16:03:51;27.88;;;9.75;;
72319;SDS011;60269;52.502;16.732;2022-10-15T16:07:23;21.95;;;9.75;;
72319;SDS011;60269;52.502;16.732;2022-10-15T16:10:59;26.42;;;10.18;;
72319;SDS011;60269;52.502;16.732;2022-10-15T16:14:32;18.87;;;8.10;;
72319;SDS011;60269;52.502;16.732;2022-10-15T16:18:04;19.20;;;7.63;;
72319;SDS011;60269;52.502;16.732;2022-10-15T16:21:36;20.58;;;8.32;;
72319;SDS011;60269;52.502;16.732;2022-10-15T16:25:08;22.00;;;8.60;;
72319;SDS011;60269;52.502;16.732;2022-10-15T16:28:40;20.60;;;8.47;;
72319;SDS011;60269;52.502;16.732;2022-10-15T16:32:12;17.70;;;7.70;;
72319;SDS011;60269;52.502;16.732;2022-10-15T16:35:49;21.80;;;9.90;;
72319;SDS011;60269;52.502;16.732;2022-10-15T16:39:22;20.67;;;9.90;;
72319;SDS011;60269;52.502;16.732;2022-10-15T16:42:54;21.38;;;9.77;;
72319;SDS011;60269;52.502;16.732;2022-10-15T16:46:26;26.13;;;9.53;;
72319;SDS011;60269;52.502;16.732;2022-10-15T16:49:58;25.05;;;10.45;;
72319;SDS011;60269;52.502;16.732;2022-10-15T16:53:31;22.70;;;10.38;;
72319;SDS011;60269;52.502;16.732;2022-10-15T16:57:03;29.48;;;10.40;;
72319;SDS011;60269;52.502;16.732;2022-10-15T17:00:38;25.10;;;11.20;;
72319;SDS011;60269;52.502;16.732;2022-10-15T17:04:11;25.52;;;11.20;;
72319;SDS011;60269;52.502;16.732;2022-10-15T17:07:43;29.80;;;12.77;;
72319;SDS011;60269;52.502;16.732;2022-10-15T17:11:16;27.35;;;12.32;;
72319;SDS011;60269;52.502;16.732;2022-10-15T17:14:53;29.07;;;11.73;;
72319;SDS011;60269;52.502;16.732;2022-10-15T17:18:25;29.85;;;10.48;;
72319;SDS011;60269;52.502;16.732;2022-10-15T17:21:57;26.13;;;11.38;;
72319;SDS011;60269;52.502;16.732;2022-10-15T17:25:28;30.58;;;11.98;;
72319;SDS011;60269;52.502;16.732;2022-10-15T17:29:01;25.43;;;11.50;;
72319;SDS011;60269;52.502;16.732;2022-10-15T17:32:33;27.50;;;12.90;;
72319;SDS011;60269;52.502;16.732;2022-10-15T17:36:06;26.83;;;12.60;;
72319;SDS011;60269;52.502;16.732;2022-10-15T17:39:48;23.40;;;11.20;;
72319;SDS011;60269;52.502;16.732;2022-10-15T17:43:20;25.00;;;10.50;;
72319;SDS011;60269;52.502;16.732;2022-10-15T17:46:52;22.40;;;10.20;;
72319;SDS011;60269;52.502;16.732;2022-10-15T17:50:24;20.17;;;9.27;;
72319;SDS011;60269;52.502;16.732;2022-10-15T17:53:56;22.00;;;9.35;;
72319;SDS011;60269;52.502;16.732;2022-10-15T17:57:29;22.75;;;9.80;;
72319;SDS011;60269;52.502;16.732;2022-10-15T18:01:00;20.90;;;8.73;;
72319;SDS011;60269;52.502;16.732;2022-10-15T18:04:32;21.33;;;9.27;;
72319;SDS011;60269;52.502;16.732;2022-10-15T18:08:04;19.20;;;8.80;;
72319;SDS011;60269;52.502;16.732;2022-10-15T18:11:36;19.48;;;8.20;;
72319;SDS011;60269;52.502;16.732;2022-10-15T18:15:08;20.70;;;8.93;;
72319;SDS011;60269;52.502;16.732;2022-10-15T18:18:40;20.20;;;9.57;;
72319;SDS011;60269;52.502;16.732;2022-10-15T18:22:12;23.30;;;9.80;;
72319;SDS011;60269;52.502;16.732;2022-10-15T18:25:44;24.20;;;11.13;;
72319;SDS011;60269;52.502;16.732;2022-10-15T18:29:17;21.03;;;9.37;;
72319;SDS011;60269;52.502;16.732;2022-10-15T18:32:49;22.90;;;9.48;;
72319;SDS011;60269;52.502;16.732;2022-10-15T18:36:26;16.70;;;7.90;;
72319;SDS011;60269;52.502;16.732;2022-10-15T18:39:59;16.92;;;7.47;;
72319;SDS011;60269;52.502;16.732;2022-10-15T18:43:31;15.23;;;7.23;;
72319;SDS011;60269;52.502;16.732;2022-10-15T18:47:03;15.05;;;6.43;;
72319;SDS011;60269;52.502;16.732;2022-10-15T18:50:34;14.95;;;7.22;;
72319;SDS011;60269;52.502;16.732;2022-10-15T18:54:11;15.60;;;7.45;;
72319;SDS011;60269;52.502;16.732;2022-10-15T18:57:43;24.90;;;9.80;;
72319;SDS011;60269;52.502;16.732;2022-10-15T19:01:29;44.72;;;16.95;;
72319;SDS011;60269;52.502;16.732;2022-10-15T19:05:05;40.10;;;15.10;;
72319;SDS011;60269;52.502;16.732;2022-10-15T19:08:37;33.73;;;13.30;;
72319;SDS011;60269;52.502;16.732;2022-10-15T19:12:09;35.93;;;15.03;;
72319;SDS011;60269;52.502;16.732;2022-10-15T19:15:41;23.90;;;10.95;;
72319;SDS011;60269;52.502;16.732;2022-10-15T19:19:14;21.35;;;8.98;;
72319;SDS011;60269;52.502;16.732;2022-10-15T19:22:47;18.83;;;7.83;;
72319;SDS011;60269;52.502;16.732;2022-10-15T19:26:19;20.97;;;8.30;;
72319;SDS011;60269;52.502;16.732;2022-10-15T19:29:51;21.42;;;7.72;;
72319;SDS011;60269;52.502;16.732;2022-10-15T19:33:23;20.48;;;7.88;;
72319;SDS011;60269;52.502;16.732;2022-10-15T19:36:56;23.93;;;9.53;;
72319;SDS011;60269;52.502;16.732;2022-10-15T19:40:28;19.37;;;7.67;;
72319;SDS011;60269;52.502;16.732;2022-10-15T19:44:00;22.65;;;8.48;;
72319;SDS011;60269;52.502;16.732;2022-10-15T19:47:33;20.90;;;7.97;;
72319;SDS011;60269;52.502;16.732;2022-10-15T19:51:05;19.07;;;8.10;;
72319;SDS011;60269;52.502;16.732;2022-10-15T19:54:37;21.83;;;9.07;;
72319;SDS011;60269;52.502;16.732;2022-10-15T19:58:09;20.45;;;9.15;;
72319;SDS011;60269;52.502;16.732;2022-10-15T20:01:40;19.60;;;8.55;;
72319;SDS011;60269;52.502;16.732;2022-10-15T20:05:12;22.27;;;9.47;;
72319;SDS011;60269;52.502;16.732;2022-10-15T20:08:44;22.10;;;9.90;;
72319;SDS011;60269;52.502;16.732;2022-10-15T20:12:17;20.40;;;9.23;;
72319;SDS011;60269;52.502;16.732;2022-10-15T20:15:50;20.70;;;8.60;;
72319;SDS011;60269;52.502;16.732;2022-10-15T20:19:23;25.47;;;9.33;;
72319;SDS011;60269;52.502;16.732;2022-10-15T20:22:55;22.30;;;9.00;;
72319;SDS011;60269;52.502;16.732;2022-10-15T20:26:27;20.30;;;8.48;;
72319;SDS011;60269;52.502;16.732;2022-10-15T20:29:58;24.35;;;8.32;;
72319;SDS011;60269;52.502;16.732;2022-10-15T20:33:30;22.57;;;9.33;;
72319;SDS011;60269;52.502;16.732;2022-10-15T20:37:02;23.60;;;9.27;;
72319;SDS011;60269;52.502;16.732;2022-10-15T20:40:37;23.92;;;9.88;;
72319;SDS011;60269;52.502;16.732;2022-10-15T20:44:10;22.50;;;10.10;;
72319;SDS011;60269;52.502;16.732;2022-10-15T20:47:44;23.87;;;10.87;;
72319;SDS011;60269;52.502;16.732;2022-10-15T20:51:20;25.10;;;10.83;;
72319;SDS011;60269;52.502;16.732;2022-10-15T20:54:58;28.38;;;11.02;;
72319;SDS011;60269;52.502;16.732;2022-10-15T20:58:30;32.15;;;11.82;;
72319;SDS011;60269;52.502;16.732;2022-10-15T21:02:02;31.37;;;12.23;;
72319;SDS011;60269;52.502;16.732;2022-10-15T21:05:34;31.63;;;12.77;;
72319;SDS011;60269;52.502;16.732;2022-10-15T21:09:05;30.67;;;11.82;;
72319;SDS011;60269;52.502;16.732;2022-10-15T21:12:37;31.73;;;12.23;;
72319;SDS011;60269;52.502;16.732;2022-10-15T21:16:09;31.67;;;12.37;;
72319;SDS011;60269;52.502;16.732;2022-10-15T21:19:41;31.23;;;13.03;;
72319;SDS011;60269;52.502;16.732;2022-10-15T21:23:13;36.15;;;12.75;;
72319;SDS011;60269;52.502;16.732;2022-10-15T21:26:45;36.83;;;14.35;;
72319;SDS011;60269;52.502;16.732;2022-10-15T21:30:17;33.93;;;13.63;;
72319;SDS011;60269;52.502;16.732;2022-10-15T21:33:49;35.17;;;13.20;;
72319;SDS011;60269;52.502;16.732;2022-10-15T21:37:21;37.72;;;14.65;;
72319;SDS011;60269;52.502;16.732;2022-10-15T21:40:53;35.45;;;14.32;;
72319;SDS011;60269;52.502;16.732;2022-10-15T21:44:25;35.20;;;15.17;;
72319;SDS011;60269;52.502;16.732;2022-10-15T21:47:56;41.17;;;15.17;;
72319;SDS011;60269;52.502;16.732;2022-10-15T21:51:29;37.53;;;15.95;;
72319;SDS011;60269;52.502;16.732;2022-10-15T21:55:02;33.80;;;14.73;;
72319;SDS011;60269;52.502;16.732;2022-10-15T21:58:35;37.50;;;16.00;;
72319;SDS011;60269;52.502;16.732;2022-10-15T22:02:08;40.87;;;16.43;;
72319;SDS011;60269;52.502;16.732;2022-10-15T22:05:40;42.28;;;15.35;;
72319;SDS011;60269;52.502;16.732;2022-10-15T22:09:12;51.97;;;17.65;;
72319;SDS011;60269;52.502;16.732;2022-10-15T22:12:49;39.67;;;16.57;;
72319;SDS011;60269;52.502;16.732;2022-10-15T22:16:22;35.27;;;14.93;;
72319;SDS011;60269;52.502;16.732;2022-10-15T22:19:55;38.67;;;15.95;;
72319;SDS011;60269;52.502;16.732;2022-10-15T22:23:27;32.55;;;14.55;;
72319;SDS011;60269;52.502;16.732;2022-10-15T22:26:58;31.40;;;13.83;;
72319;SDS011;60269;52.502;16.732;2022-10-15T22:30:32;33.57;;;14.57;;
72319;SDS011;60269;52.502;16.732;2022-10-15T22:34:05;33.60;;;14.65;;
72319;SDS011;60269;52.502;16.732;2022-10-15T22:37:37;32.72;;;14.50;;
72319;SDS011;60269;52.502;16.732;2022-10-15T22:41:09;32.17;;;13.82;;
72319;SDS011;60269;52.502;16.732;2022-10-15T22:44:42;29.27;;;12.93;;
72319;SDS011;60269;52.502;16.732;2022-10-15T22:48:13;31.27;;;13.73;;
72319;SDS011;60269;52.502;16.732;2022-10-15T22:51:46;36.00;;;13.23;;